Tiempo atmosférico en la estación meteorológica de Carrión De Los Condes, Palencia (830 m.)

Fecha
DESCASC
Temp. máxima en grados centígrados (hora)
DESCASC
Temp. mínima en grados centígrados (hora)
DESCASC
Temp. media en grados centígrados
DESCASC
Racha de viento máxima en m/sg (hora)
DESCASC
Velocidad máxima media en intervalos de 10 minutos(hora)
DESCASC
Precipitaciones diarias en mm
DESCASC
Precipitaciones de 00:00 a 06:00 en mm
DESCASC
Precipitaciones de 06:00 a 12:00 en mm
DESCASC
Precipitaciones de 12:00 a 18:00 en mm
DESCASC
Precipitaciones de 18:00 a 24:00 en mm
DESCASC
17-08-2017 33.6 (16:50) 13.5 (07:50) 23.5 7.5 (00:10) 2.5 (22:00) 0 0 0 0 0
16-08-2017 30.4 (18:50) 13 (07:50) 21.7 7.78 (23:00) 3.06 (22:30) 0 0 0 0 0
15-08-2017 31.8 (16:10) 16.2 (00:00) 24 11.39 (17:30) 4.17 (15:10) 0 0 0 0 0
14-08-2017 33.6 (15:30) 14.3 (07:40) 23.9 10.83 (16:10) 4.44 (14:30) 0 0 0 0 0
13-08-2017 32 (18:10) 12.8 (00:00) 22.4 6.39 (10:30) 3.06 (22:20) 0 0 0 0 0
12-08-2017 29.8 (18:20) 8 (00:00) 18.9 8.61 (23:10) 3.33 (23:20) 0 0 0 0 0
11-08-2017 26.2 (17:10) 8.2 (00:00) 17.2 8.33 (21:20) 3.33 (22:30) 0 0 0 0 0
10-08-2017 23.3 (16:30) 3.2 (00:00) 13.2 9.17 (19:30) 3.61 (19:40) 0 0 0 0 0
09-08-2017 21.9 (15:20) 6.9 (00:00) 14.4 12.78 (19:30) 4.17 (20:00) 0 0 0 0 0
08-08-2017 24.8 (18:40) 9.8 (00:00) 17.3 11.11 (19:40) 4.17 (19:40) 0 0 0 0 0
07-08-2017 29.2 (14:40) 11.6 (00:00) 20.4 11.11 (20:40) 4.72 (21:20) 0 0 0 0 0
06-08-2017 25.2 (18:00) 13.6 (00:00) 19.4 13.61 (14:50) 5.28 (02:40) 0 0 0 0 0
05-08-2017 26.9 (15:50) 14.6 (00:00) 20.8 14.72 (20:00) 6.39 (19:10) 0 0 0 0 0
04-08-2017 33.8 (19:00) 13.2 (00:00) 23.5 9.72 (17:40) 3.89 (22:10) 0 0 0 0 0
03-08-2017 32.4 (17:20) 9.2 (00:00) 20.8 8.89 (17:30) 3.33 (17:30) 0 0 0 0 0
02-08-2017 31.3 (18:10) 10.3 (00:00) 20.8 8.06 (18:30) 3.06 (18:10) 0 0 0 0 0
01-08-2017 29.2 (18:30) 13.9 (00:00) 21.6 8.33 (03:40) 2.78 (04:20) 0 0 0 0 0
31-07-2017 27.8 (16:30) 12.1 (00:00) 19.9 8.61 (00:10) 3.33 (00:10) 0 0 0 0 0
30-07-2017 30.4 (16:20) 13 (00:00) 21.7 10.28 (14:50) 3.89 (22:50) 0 0 0 0 0
29-07-2017 32.7 (19:10) 10.7 (00:00) 21.7 11.67 (13:40) 4.17 (19:40) 0 0 0 0 0
28-07-2017 31.9 (18:20) 12.1 (00:00) 22 6.39 (22:30) 2.78 (22:30) 0 0 0 0 0
27-07-2017 32.8 (17:30) 10.5 (00:00) 21.6 10 (15:20) 3.33 (22:00) 0 0 0 0 0
26-07-2017 30.5 (18:20) 9.1 (00:00) 19.8 6.94 (22:20) 2.78 (22:20) 0 0 0 0 0
25-07-2017 24.7 (17:10) 8.4 (00:00) 16.6 8.89 (13:10) 3.61 (13:30) 0 0 0 0 0
24-07-2017 27.8 (16:40) 9.9 (00:00) 18.8 9.72 (18:20) 3.89 (18:10) 0 0 0 0 0
23-07-2017 28.8 (18:20) 11.2 (00:00) 20 9.17 (22:30) 3.89 (22:30) 0 0 0 0 0
22-07-2017 27.8 (17:50) 9.6 (00:00) 18.7 8.89 (18:50) 3.61 (21:50) 0 0 0 0 0

Gráficas

Temp. máximas Temp. mínimas Temp. medias Precipitaciones Rachas de viento máximas Velocidades máximas media en intervalos de 10 minutos

Datos horarios

Fecha y hora oficial Temperatura (ºC) Velocidad del viento (km/h) Dirección del viento Racha (km/h) Dirección de racha Precipitación (mm) Presión (hPa) Tendencia (hPa) Humedad (%)
2017-08-20 23:00:00 21.5 8 Nordeste 28 Nordeste 0 928.4 1 33
2017-08-20 22:00:00 23.2 10 Nordeste 24 Nordeste 0 928.2 0.6 28
2017-08-20 21:00:00 25.3 9 Nordeste 31 Nordeste 0 927.6 -0.4 25
2017-08-20 20:00:00 27.3 12 Nordeste 33 Este 0 927.4 -0.9 25
2017-08-20 19:00:00 29.4 12 Nordeste 30 Norte 0 927.6 -1.2 22
2017-08-20 18:00:00 30 12 Nordeste 31 Nordeste 0 928 -1.2 20
2017-08-20 17:00:00 29.8 9 Nordeste 33 Este 0 928.3 -1.2 20
2017-08-20 16:00:00 29.3 10 Nordeste 30 Este 0 928.8 -1.2 20
2017-08-20 15:00:00 28.1 12 Este 31 Este 0 929.2 -1.2 21
2017-08-20 14:00:00 26.8 9 Este 28 Nordeste 0 929.5 -0.9 19
2017-08-20 13:00:00 25 11 Nordeste 30 Este 0 930 -0.2 22
2017-08-20 12:00:00 23.2 10 Nordeste 32 Este 0 930.4 0.1 18
2017-08-20 11:00:00 20.8 11 Este 31 Nordeste 0 930.4 0.4 25
2017-08-20 10:00:00 17.4 8 Nordeste 28 Nordeste 0 930.2 0.4 49
2017-08-20 09:00:00 13.4 8 Nordeste 24 Nordeste 0 930.3 0.7 67
2017-08-20 08:00:00 10.7 8 Norte 15 Norte 0 930 0.2 82
2017-08-20 07:00:00 11 6 Nordeste 21 Nordeste 0 929.8 0 80
2017-08-20 06:00:00 11.4 5 Norte 14 Nordeste 0 929.6 -0.3 79
2017-08-20 05:00:00 11.6 6 Norte 14 Norte 0 929.8 -0.2 76
2017-08-20 04:00:00 12.1 4 Nordeste 15 Nordeste 0 929.8 -0.1 73
2017-08-20 03:00:00 13 8 Nordeste 25 Nordeste 0 929.9 0.1 70
2017-08-20 02:00:00 13.8 6 Nordeste 23 Este 0 930 0.6 68
2017-08-20 01:00:00 14.5 8 Nordeste 26 Nordeste 0 929.9 1.2 71
2017-08-20 00:00:00 15.5 11 Nordeste 26 Nordeste 0 929.8 2 69
2017-08-19 23:00:00 16.5 8 Nordeste 23 Este 0 929.4 2.2 67
2017-08-19 22:00:00 18.8 9 Nordeste 31 Nordeste 0 928.7 2 59
2017-08-19 21:00:00 21.4 10 Nordeste 27 Nordeste 0 927.8 0.9 50
2017-08-19 20:00:00 24 10 Nordeste 28 Nordeste 0 927.2 0.1 36
2017-08-19 19:00:00 26.4 9 Nordeste 27 Nordeste 0 926.7 -0.9 29
2017-08-19 18:00:00 27.4 8 Nordeste 23 Nordeste 0 926.9 -0.8 26
2017-08-19 17:00:00 27.2 8 Nordeste 26 Norte 0 927.1 -0.8 27
2017-08-19 16:00:00 26.4 9 Nordeste 29 Nordeste 0 927.6 -0.6 30
2017-08-19 15:00:00 25.4 13 Nordeste 29 Norte 0 927.7 -0.5 34
2017-08-19 14:00:00 24.6 10 Nordeste 34 Este 0 927.9 -0.7 38
2017-08-19 13:00:00 22.8 13 Nordeste 31 Nordeste 0 928.2 -0.3 45
2017-08-19 12:00:00 22 8 Este 31 Nordeste 0 928.2 -0.3 50
2017-08-19 11:00:00 20.1 10 Nordeste 39 Nordeste 0 928.6 0.6 59
2017-08-19 10:00:00 18.4 12 Nordeste 38 Nordeste 0 928.5 0.9 65
2017-08-19 09:00:00 15.9 12 Nordeste 26 Nordeste 0 928.5 1 77
2017-08-19 08:00:00 14.7 6 Nordeste 19 Nordeste 0 928 0.4 80
2017-08-19 07:00:00 15.1 8 Nordeste 26 Este 0 927.6 0.3 79
2017-08-19 06:00:00 15.4 11 Nordeste 25 Nordeste 0 927.5 -0.1 79
2017-08-19 05:00:00 14.9 7 Nordeste 19 Nordeste 0 927.6 0.1 82
2017-08-19 04:00:00 15 5 Nordeste 25 Este 0 927.3 -0.1 82
2017-08-19 03:00:00 15.6 7 Nordeste 25 Nordeste 0 927.6 0.1 80
2017-08-19 02:00:00 15.7 9 Nordeste 28 Nordeste 0 927.5 0.2 80
2017-08-19 01:00:00 16.4 10 Nordeste 31 Nordeste 0 927.4 0.3 76
2017-08-19 00:00:00 16.8 10 Nordeste 29 Este 0 927.5 1.2 75
2017-08-18 23:00:00 17.5 13 Nordeste 40 Nordeste 0 927.3 1.6 72
2017-08-18 22:00:00 18.9 15 Nordeste 37 Este 0 927.1 1.6 66
2017-08-18 21:00:00 20.7 12 Nordeste 33 Este 0 926.3 0.8 56
2017-08-18 20:00:00 23 12 Nordeste 39 Este 0 925.7 0.1 49
2017-08-18 19:00:00 25.7 12 Este 36 Nordeste 0 925.5 -0.1 41
2017-08-18 18:00:00 26.9 12 Este 30 Este 0 925.5 -0.3 39
2017-08-18 17:00:00 26.6 13 Nordeste 33 Nordeste 0 925.6 -0.5 39
2017-08-18 16:00:00 29 6 Noroeste 18 Nordeste 0 925.6 -0.7 28
2017-08-18 15:00:00 28.5 5 Nordeste 16 Sudeste 0 925.8 -0.7 33
2017-08-18 14:00:00 28 5 Sudeste 19 Sudoeste 0 926.1 -0.4 33
2017-08-18 13:00:00 26 5 Nordeste 19 Sudeste 0 926.3 -0.1 44
2017-08-18 12:00:00 25 8 Este 19 Este 0 926.5 0.5 46
2017-08-18 11:00:00 22.4 6 Nordeste 16 Nordeste 0 926.5 0.6 56
2017-08-18 10:00:00 20 4 Nordeste 14 Nordeste 0 926.4 1.4 64
2017-08-18 09:00:00 15.8 4 Nordeste 11 Nordeste 0 926 1.4 81
2017-08-18 08:00:00 11.6 0 Calma 6 Norte 0 925.9 1 92
2017-08-18 07:00:00 12.1 0 Calma 9 Noroeste 0 925 -0.1 89
2017-08-18 06:00:00 12.4 2 Norte 7 Nordeste 0 924.6 -0.8 82
2017-08-18 05:00:00 13.2 4 Norte 8 Norte 0 924.9 -0.7 79
2017-08-18 04:00:00 13.7 3 Norte 8 Norte 0 925.1 -0.6 79
2017-08-18 03:00:00 14.6 0 Calma 4 Norte 0 925.4 -0.2 75
2017-08-18 02:00:00 16.6 2 Norte 8 Nordeste 0 925.6 0.3 66
2017-08-18 01:00:00 19.3 4 Norte 17 Nordeste 0 925.7 0.6 55
2017-08-18 00:00:00 21 5 Nordeste 20 Nordeste 0 925.6 0.8 51
2017-08-17 23:00:00 22.9 8 Nordeste 20 Nordeste 0 925.3 0.5 49
2017-08-17 22:00:00 23.6 9 Nordeste 21 Norte 0 925.1 0.3 48
2017-08-17 21:00:00 23.8 0 Calma 11 Sur 0 924.8 -0.2 49
2017-08-17 20:00:00 28.7 2 Sur 12 Noroeste 0 924.8 -0.3 26
2017-08-17 19:00:00 32.6 3 Oeste 17 Sudoeste 0 924.8 -0.8 21
2017-08-17 18:00:00 33 6 Sudoeste 15 Oeste 0 925 -1.2 20
2017-08-17 17:00:00 33.3 5 Sudoeste 21 Sur 0 925.1 -1.6 19
2017-08-17 16:00:00 32.9 6 Sudoeste 26 Sudoeste 0 925.6 -1.5 22
2017-08-17 15:00:00 32 5 Sudoeste 19 Sudoeste 0 926.2 -1.5 22
2017-08-17 14:00:00 31.2 7 Sudeste 22 Sur 0 926.7 -1.4 23
2017-08-17 13:00:00 29.1 5 Sudeste 13 Sudoeste 0 927.1 -0.9 27
2017-08-17 12:00:00 27.2 5 Este 13 Sudeste 0 927.7 -0.3 33
2017-08-17 11:00:00 24.5 4 Norte 13 Nordeste 0 928.1 0.2 40
2017-08-17 10:00:00 21.5 5 Nordeste 16 Este 0 928 0.4 48
2017-08-17 09:00:00 17 5 Norte 11 Norte 0 928 0.5 64
2017-08-17 08:00:00 13.7 4 Norte 10 Nordeste 0 927.9 0.1 75
2017-08-17 07:00:00 13.7 5 Norte 10 Norte 0 927.6 -0.7 74
2017-08-17 06:00:00 14.8 6 Norte 15 Norte 0 927.5 -0.6 67
2017-08-17 05:00:00 15.2 6 Norte 16 Norte 0 927.8 -0.5 65
2017-08-17 04:00:00 15 5 Norte 13 Nordeste 0 928.3 -0.1 66
2017-08-17 03:00:00 15.9 5 Nordeste 15 Nordeste 0 928.1 -0.1 62
2017-08-17 02:00:00 16.6 5 Norte 18 Nordeste 0 928.3 -0.1 57
2017-08-17 01:00:00 17.5 6 Nordeste 27 Nordeste 0 928.4 0.6 59
2017-08-17 00:00:00 18.8 8 Nordeste 25 Nordeste 0 928.2 1.5 60
2017-08-16 23:00:00 20.2 9 Nordeste 28 Este 0 928.4 1.8 51
2017-08-16 22:00:00 22.3 6 Nordeste 21 Nordeste 0 927.8 1.2 46
2017-08-16 21:00:00 22.5 0 Calma 3 Este 0 926.7 0.2 51
2017-08-16 20:00:00 26.2 0 Calma 14 Oeste 0 926.6 -0.2 39
2017-08-16 19:00:00 30 3 Oeste 10 Noroeste 0 926.6 -0.6 23
2017-08-16 18:00:00 29.7 5 Noroeste 17 Norte 0 926.5 -0.9 19
2017-08-16 17:00:00 29.4 5 Noroeste 21 Sudoeste 0 926.8 -1.1 17
2017-08-16 16:00:00 29.2 5 Noroeste 22 Sudoeste 0 927.2 -1.3 18
2017-08-16 15:00:00 28.2 4 Oeste 17 Sudoeste 0 927.4 -1.3 22
2017-08-16 14:00:00 26.1 4 Nordeste 16 Sudeste 0 927.9 -0.6 29
2017-08-16 13:00:00 24.5 5 Noroeste 14 Norte 0 928.5 0 39
2017-08-16 12:00:00 22.8 3 Sudoeste 16 Noroeste 0 928.7 0.3 46
2017-08-16 11:00:00 21.4 5 Este 16 Este 0 928.5 0.5 54
2017-08-16 10:00:00 19 5 Este 15 Nordeste 0 928.5 0.9 63
2017-08-16 09:00:00 15.4 6 Norte 12 Nordeste 0 928.4 1.1 78
2017-08-16 08:00:00 13 4 Norte 14 Norte 0 928 0.6 85
2017-08-16 07:00:00 13.5 6 Norte 14 Norte 0 927.6 0.4 83
2017-08-16 06:00:00 13.7 5 Norte 14 Norte 0 927.3 0.3 83
2017-08-16 05:00:00 13.8 4 Norte 12 Norte 0 927.4 0 84
2017-08-16 04:00:00 14.6 5 Norte 9 Norte 0 927.2 -0.2 81
2017-08-16 03:00:00 15.6 4 Nordeste 20 Nordeste 0 927 -0.5 78
2017-08-16 02:00:00 15.9 8 Nordeste 19 Nordeste 0 927.4 0.5 77
2017-08-16 01:00:00 16.1 9 Nordeste 19 Nordeste 0 927.4 1.2 76
2017-08-16 00:00:00 16.7 5 Nordeste 24 Nordeste 0 927.5 2.1 74
2017-08-15 23:00:00 17.1 10 Nordeste 31 Nordeste 0 926.9 2.6 72
2017-08-15 22:00:00 18.5 13 Nordeste 33 Nordeste 0 926.2 2.6 66
2017-08-15 21:00:00 21.1 10 Este 37 Nordeste 0 925.4 1.9 57
2017-08-15 20:00:00 26.2 8 Nordeste 26 Sur 0 924.3 0.7 40
2017-08-15 19:00:00 30.8 9 Sudoeste 32 Sudoeste 0 923.6 -0.2 15
2017-08-15 18:00:00 31.1 7 Sudoeste 41 Sur 0 923.5 -0.5 16
2017-08-15 17:00:00 31.6 11 Sudoeste 37 Sudoeste 0 923.6 -0.8 18
2017-08-15 16:00:00 31.7 11 Sudoeste 27 Sur 0 923.8 -0.8 18
2017-08-15 15:00:00 30.4 12 Sudoeste 29 Sur 0 924 -0.6 19
2017-08-15 14:00:00 28.9 8 Sudoeste 17 Sudoeste 0 924.4 -0.3 25
2017-08-15 13:00:00 27.6 5 Sur 17 Sudoeste 0 924.6 0 32
2017-08-15 12:00:00 25 5 Este 17 Nordeste 0 924.6 0.5 44
2017-08-15 11:00:00 23 6 Este 22 Este 0 924.7 1.1 50
2017-08-15 10:00:00 20.4 6 Este 19 Nordeste 0 924.6 1.6 57
2017-08-15 09:00:00 17.9 6 Nordeste 14 Nordeste 0 924.1 1.4 64
2017-08-15 08:00:00 16.4 6 Nordeste 15 Este 0 923.6 0.7 69
2017-08-15 07:00:00 16.3 5 Norte 15 Nordeste 0 923 0 68
2017-08-15 06:00:00 17.2 5 Nordeste 15 Nordeste 0 922.7 0 65
2017-08-15 05:00:00 17.2 4 Norte 12 Nordeste 0 922.9 0.1 65
2017-08-15 04:00:00 18 4 Nordeste 14 Nordeste 0 923 0.2 61
2017-08-15 03:00:00 19.1 7 Nordeste 20 Nordeste 0 922.7 0 57
2017-08-15 02:00:00 19.3 8 Nordeste 19 Norte 0 922.8 0.6 58
2017-08-15 01:00:00 20.6 5 Nordeste 20 Nordeste 0 922.8 1 54
2017-08-15 00:00:00 21.9 4 Norte 12 Nordeste 0 922.7 1.9 44
2017-08-14 23:00:00 24.8 4 Sur 23 Sur 0 922.2 1.7 33
2017-08-14 22:00:00 24.2 6 Sur 19 Sur 0 921.8 1.4 31
2017-08-14 21:00:00 25 2 Este 5 Norte 0 920.8 0 42
2017-08-14 20:00:00 29.3 2 Nordeste 24 Sudoeste 0 920.5 -0.5 31
2017-08-14 19:00:00 32.4 9 Sudoeste 29 Sudoeste 0 920.4 -0.9 17
2017-08-14 18:00:00 33 6 Sudoeste 33 Sudoeste 0 920.8 -0.8 14
2017-08-14 17:00:00 32.9 12 Sudoeste 39 Sudoeste 0 921 -1 14
2017-08-14 16:00:00 33.4 8 Sudoeste 32 Sur 0 921.3 -1.1 14
2017-08-14 15:00:00 33.1 14 Sudoeste 35 Sudoeste 0 921.6 -1 13
2017-08-14 14:00:00 32.1 9 Sudoeste 27 Sudoeste 0 922 -1 16
2017-08-14 13:00:00 29.6 8 Sur 17 Sur 0 922.4 -0.6 22
2017-08-14 12:00:00 27.4 6 Sudeste 13 Sudeste 0 922.6 -0.2 26
2017-08-14 11:00:00 24.6 4 Sudeste 13 Sudeste 0 923 0.3 34
2017-08-14 10:00:00 21.1 5 Este 16 Este 0 923 0.6 49
2017-08-14 09:00:00 17.4 5 Nordeste 12 Este 0 922.8 0.4 63
2017-08-14 08:00:00 14.7 4 Nordeste 13 Nordeste 0 922.7 0.1 70
2017-08-14 07:00:00 14.7 4 Nordeste 12 Norte 0 922.4 -0.2 69
2017-08-14 06:00:00 15.4 3 Norte 12 Este 0 922.4 -0.4 66
2017-08-14 05:00:00 15.5 4 Nordeste 8 Norte 0 922.6 -0.4 68
2017-08-14 04:00:00 17 4 Norte 16 Nordeste 0 922.6 -0.5 63
2017-08-14 03:00:00 17.6 6 Norte 18 Nordeste 0 922.8 -0.4 63
2017-08-14 02:00:00 18.6 5 Nordeste 21 Nordeste 0 923 -0.2 61
2017-08-14 01:00:00 19.4 9 Nordeste 22 Norte 0 923.1 0.2 61
2017-08-14 00:00:00 20.5 8 Nordeste 21 Nordeste 0 923.2 0.8 58
2017-08-13 23:00:00 21.6 9 Nordeste 22 Norte 0 923.2 0.9 52
2017-08-13 22:00:00 20 7 Norte 20 Norte 0 922.9 0.5 47
2017-08-13 21:00:00 22.4 0 Calma 6 Sudoeste 0 922.4 -0.2 48
2017-08-13 20:00:00 27.2 0 Calma 16 Sudoeste 0 922.3 -0.7 30
2017-08-13 19:00:00 31.5 3 Sur 19 Sudoeste 0 922.4 -1.2 17
2017-08-13 18:00:00 31.8 3 Sudeste 13 Sudoeste 0 922.6 -1.5 18
2017-08-13 17:00:00 31.7 9 Sur 20 Sur 0 923 -1.8 15
2017-08-13 16:00:00 30.9 4 Noroeste 18 Sur 0 923.6 -1.8 14
2017-08-13 15:00:00 30.2 5 Norte 18 Sudeste 0 924.1 -1.7 16
2017-08-13 14:00:00 29.6 6 Sudeste 17 Sudeste 0 924.8 -1.4 17
2017-08-13 13:00:00 27.8 6 Este 19 Este 0 925.4 -1 25
2017-08-13 12:00:00 25.8 6 Este 20 Este 0 925.8 -0.4 27
2017-08-13 11:00:00 22.7 8 Nordeste 23 Nordeste 0 926.2 0.2 27
2017-08-13 10:00:00 19.7 9 Nordeste 22 Nordeste 0 926.4 0.4 30
2017-08-13 09:00:00 16.2 8 Norte 16 Norte 0 926.2 0 33
2017-08-13 08:00:00 13.6 7 Nordeste 18 Nordeste 0 926 -0.6 36
2017-08-13 07:00:00 13 8 Nordeste 21 Nordeste 0 926 -0.9 42
2017-08-13 06:00:00 13.2 6 Nordeste 21 Nordeste 0 926.2 -1 41
2017-08-13 05:00:00 13.5 6 Nordeste 19 Nordeste 0 926.6 -1 46
2017-08-13 04:00:00 14.1 6 Nordeste 19 Nordeste 0 926.9 -0.9 44
2017-08-13 03:00:00 14.5 8 Nordeste 18 Nordeste 0 927.2 -0.5 48
2017-08-13 02:00:00 15.4 6 Nordeste 21 Nordeste 0 927.6 0 48
2017-08-13 01:00:00 16.4 8 Nordeste 22 Este 0 927.8 0.7 57
2017-08-13 00:00:00 17.8 8 Nordeste 31 Nordeste 0 927.7 1 56
2017-08-12 23:00:00 19.2 9 Nordeste 25 Nordeste 0 927.6 1.4 47
2017-08-12 22:00:00 21.2 9 Nordeste 29 Nordeste 0 927.1 0.8 36
2017-08-12 21:00:00 24 10 Nordeste 29 Norte 0 926.7 0.2 27
2017-08-12 20:00:00 25.2 0 Calma 11 Norte 0 926.2 -0.7 31
2017-08-12 19:00:00 29.1 4 Nordeste 12 Sudeste 0 926.3 -1.3 16
2017-08-12 18:00:00 29.2 4 Noroeste 12 Noroeste 0 926.5 -1.6 16
2017-08-12 17:00:00 29 3 Nordeste 11 Sudeste 0 926.9 -1.9 14
2017-08-12 16:00:00 28 4 Noroeste 13 Noroeste 0 927.6 -1.6 15
2017-08-12 15:00:00 27.1 4 Noroeste 14 Sudoeste 0 928.1 -1.4 14
2017-08-12 14:00:00 26.2 4 Sur 13 Sudeste 0 928.8 -0.8 15
2017-08-12 13:00:00 24.5 6 Norte 13 Nordeste 0 929.2 -0.6 15
2017-08-12 12:00:00 23.3 5 Este 14 Sudeste 0 929.5 0 12
2017-08-12 11:00:00 21.1 4 Este 13 Norte 0 929.6 0.1 13
2017-08-12 10:00:00 17.5 5 Nordeste 18 Nordeste 0 929.8 0.7 25
2017-08-12 09:00:00 13.3 6 Norte 15 Norte 0 929.5 0.7 40
2017-08-12 08:00:00 8.7 2 Noroeste 16 Norte 0 929.5 0.3 68
2017-08-12 07:00:00 9.3 7 Norte 13 Norte 0 929.1 -0.4 64
2017-08-12 06:00:00 9.5 7 Norte 15 Norte 0 928.8 -0.6 67
2017-08-12 05:00:00 9.2 4 Norte 16 Nordeste 0 929.2 -0.6 71
2017-08-12 04:00:00 10.6 5 Norte 13 Norte 0 929.5 -0.4 64
2017-08-12 03:00:00 10.9 3 Norte 13 Nordeste 0 929.4 -0.4 63
2017-08-12 02:00:00 12.1 4 Nordeste 16 Nordeste 0 929.8 0.2 62
2017-08-12 01:00:00 13.4 7 Nordeste 17 Nordeste 0 929.9 0.6 60
2017-08-12 00:00:00 14.8 6 Nordeste 21 Nordeste 0 929.8 1.1 43
2017-08-11 23:00:00 16.1 11 Nordeste 29 Nordeste 0 929.6 1.2 37
2017-08-11 22:00:00 17.8 10 Nordeste 30 Este 0 929.3 1.2 39
2017-08-11 21:00:00 20.4 8 Nordeste 29 Nordeste 0 928.7 0.5 31
2017-08-11 20:00:00 22.6 8 Nordeste 25 Este 0 928.4 0 27
2017-08-11 19:00:00 25.4 8 Este 24 Nordeste 0 928.1 -0.9 23
2017-08-11 18:00:00 26.2 7 Sudeste 23 Nordeste 0 928.2 -1.3 19
2017-08-11 17:00:00 26 6 Sudoeste 17 Nordeste 0 928.4 -1.6 22
2017-08-11 16:00:00 24.5 7 Norte 20 Nordeste 0 929 -1.4 23
2017-08-11 15:00:00 23.6 6 Este 21 Norte 0 929.5 -1.5 24
2017-08-11 14:00:00 21.4 6 Norte 17 Este 0 930 -1 30
2017-08-11 13:00:00 19.9 4 Nordeste 16 Norte 0 930.4 -0.5 35
2017-08-11 12:00:00 18.2 6 Este 16 Nordeste 0 931 0.1 40
2017-08-11 11:00:00 16.5 5 Este 18 Nordeste 0 931 0.2 48
2017-08-11 10:00:00 14.3 6 Nordeste 17 Este 0 930.9 0.2 58
2017-08-11 09:00:00 11.7 5 Nordeste 10 Norte 0 930.9 0.3 71
2017-08-11 08:00:00 8.8 3 Nordeste 7 Norte 0 930.8 -0.1 91
2017-08-11 07:00:00 8.4 3 Norte 12 Norte 0 930.7 -0.4 89
2017-08-11 06:00:00 9.1 3 Norte 10 Norte 0 930.6 -0.8 82
2017-08-11 05:00:00 9 3 Norte 10 Este 0 930.9 -0.9 80
2017-08-11 04:00:00 9.4 3 Nordeste 11 Nordeste 0 931.1 -0.7 79
2017-08-11 03:00:00 9.8 4 Este 16 Este 0 931.4 -0.4 76
2017-08-11 02:00:00 10.1 5 Este 15 Este 0 931.8 0.1 74
2017-08-11 01:00:00 10.7 4 Este 17 Este 0 931.8 0.6 70
2017-08-11 00:00:00 11.5 5 Este 20 Este 0 931.8 1 66
2017-08-10 23:00:00 12.5 6 Este 23 Nordeste 0 931.7 1.3 63
2017-08-10 22:00:00 14 7 Este 28 Este 0 931.2 1.1 58
2017-08-10 21:00:00 16 8 Este 32 Este 0 930.8 0.8 52
2017-08-10 20:00:00 18.2 11 Nordeste 33 Este 0 930.4 0.3 45
2017-08-10 19:00:00 21.2 9 Este 31 Este 0 930.1 -0.5 33
2017-08-10 18:00:00 22.4 9 Este 31 Sudeste 0 930 -1.2 31
2017-08-10 17:00:00 23.2 8 Este 22 Este 0 930.1 -1.4 28
2017-08-10 16:00:00 22.5 5 Oeste 22 Sudoeste 0 930.6 -1.1 27
2017-08-10 15:00:00 21.5 3 Sur 19 Sudeste 0 931.2 -0.5 30
2017-08-10 14:00:00 20.8 5 Sur 21 Norte 0 931.5 -0.2 30
2017-08-10 13:00:00 19.2 8 Nordeste 29 Este 0 931.7 0 36
2017-08-10 12:00:00 17.9 9 Este 22 Este 0 931.7 0.1 41
2017-08-10 11:00:00 15.7 6 Este 15 Este 0 931.7 0.7 49
2017-08-10 10:00:00 12.8 2 Norte 9 Sudeste 0 931.7 0.8 58
2017-08-10 09:00:00 8.3 2 Nordeste 5 Norte 0 931.6 0.8 78
2017-08-10 08:00:00 3.7 0 Calma 5 Sudoeste 0 931 0.1 94
2017-08-10 07:00:00 3.8 3 Noroeste 7 Norte 0 930.9 0 94
2017-08-10 06:00:00 4.1 3 Norte 7 Noroeste 0 930.8 -0.2 94
2017-08-10 05:00:00 4.4 3 Norte 10 Oeste 0 930.9 -0.3 94
2017-08-10 04:00:00 4.8 2 Norte 4 Norte 0 930.9 -0.1 92
2017-08-10 03:00:00 5.8 0 Calma 8 Nordeste 0 931 0.2 84
2017-08-10 02:00:00 6.5 2 Norte 7 Sudeste 0 931.2 1 82
2017-08-10 01:00:00 8.7 3 Nordeste 9 Nordeste 0 931 1.8 75
2017-08-10 00:00:00 10 4 Nordeste 19 Nordeste 0 930.8 2.4 69
2017-08-09 23:00:00 11 6 Nordeste 24 Nordeste 0 930.2 2.5 58
2017-08-09 22:00:00 12.6 10 Nordeste 31 Nordeste 0 929.2 2.1 53
2017-08-09 21:00:00 14.2 14 Nordeste 38 Nordeste 0 928.4 1.9 51
2017-08-09 20:00:00 15.8 15 Nordeste 46 Sudeste 0 927.7 1.3 42
2017-08-09 19:00:00 17.5 13 Nordeste 41 Este 0 927.1 0.9 37
2017-08-09 18:00:00 18.7 10 Nordeste 31 Este 0 926.5 0.5 33
2017-08-09 17:00:00 20.2 12 Este 30 Este 0 926.4 0.3 32
2017-08-09 16:00:00 19.1 7 Este 29 Nordeste 0 926.2 0.2 35
2017-08-09 15:00:00 20.8 5 Sur 17 Sudeste 0 926 -0.1 32
2017-08-09 14:00:00 19.9 4 Este 19 Norte 0 926.1 0.2 38
2017-08-09 13:00:00 18.6 4 Sur 14 Nordeste 0 926 0.2 43
2017-08-09 12:00:00 17.4 5 Oeste 17 Este 0 926.1 0.8 46
2017-08-09 11:00:00 15.8 6 Este 17 Sudeste 0 925.9 1 54
2017-08-09 10:00:00 13.2 4 Nordeste 16 Norte 0 925.8 1 66
2017-08-09 09:00:00 10.3 2 Norte 5 Noroeste 0 925.3 0.7 81
2017-08-09 08:00:00 8.4 0 Calma 3 Oeste 0 924.9 0.3 92
2017-08-09 07:00:00 7 0 Calma 8 Norte 0 924.8 -0.2 92
2017-08-09 06:00:00 7.7 2 Norte 9 Nordeste 0 924.6 -0.4 83
2017-08-09 05:00:00 8.5 5 Norte 12 Norte 0 924.6 -0.7 81
2017-08-09 04:00:00 9.1 4 Norte 11 Nordeste 0 925 -0.2 78
2017-08-09 03:00:00 10.3 5 Nordeste 19 Nordeste 0 925 -0.1 74
2017-08-09 02:00:00 10.7 6 Norte 21 Nordeste 0 925.3 0.4 79
2017-08-09 01:00:00 11.5 8 Nordeste 29 Norte 0 925.2 0.5 79
2017-08-09 00:00:00 12.1 10 Nordeste 27 Nordeste 0 925.1 0.9 76
2017-08-08 23:00:00 13.3 10 Nordeste 28 Nordeste 0 924.9 1.2 69
2017-08-08 22:00:00 15.2 9 Nordeste 28 Nordeste 0 924.7 1.3 61
2017-08-08 21:00:00 17.9 9 Este 34 Nordeste 0 924.2 0.6 49
2017-08-08 20:00:00 19.8 10 Nordeste 40 Nordeste 0 923.7 -0.2 43
2017-08-08 19:00:00 23.2 5 Noroeste 14 Sur 0 923.4 -0.8 29
2017-08-08 18:00:00 24.1 4 Norte 10 Este 0 923.6 -0.9 23
2017-08-08 17:00:00 23.3 4 Nordeste 13 Norte 0 923.9 -0.9 28
2017-08-08 16:00:00 22.3 5 Sur 18 Noroeste 0 924.2 -0.9 29
2017-08-08 15:00:00 22.5 6 Oeste 16 Sudoeste 0 924.5 -0.6 29
2017-08-08 14:00:00 20.9 7 Nordeste 21 Noroeste 0 924.8 -0.3 36
2017-08-08 13:00:00 20.1 4 Sudoeste 16 Noroeste 0 925.1 0.4 42
2017-08-08 12:00:00 17.5 3 Oeste 19 Norte 0 925.1 0.4 55
2017-08-08 11:00:00 17.5 5 Noroeste 13 Norte 0 925.1 0.7 53
2017-08-08 10:00:00 15.8 5 Este 13 Este 0 924.7 0.9 62
2017-08-08 09:00:00 13 5 Este 17 Nordeste 0 924.7 1.5 70
2017-08-08 08:00:00 12.5 4 Este 12 Sudeste 0 924.4 1.3 73
2017-08-08 07:00:00 12.5 4 Sudeste 12 Este 0 923.8 0.7 76
2017-08-08 06:00:00 12.1 4 Este 10 Este 0 923.2 0.1 79
2017-08-08 05:00:00 10.5 2 Nordeste 5 Norte 0 923.1 0.2 92
2017-08-08 04:00:00 10.2 2 Norte 5 Norte 0 923.1 0.3 89
2017-08-08 03:00:00 11.3 3 Norte 8 Norte 0 923.1 0.7 83
2017-08-08 02:00:00 12.8 3 Nordeste 15 Este 0 922.9 1 78
2017-08-08 01:00:00 13.3 5 Nordeste 15 Nordeste 0 922.8 2.6 76
2017-08-08 00:00:00 14.3 4 Nordeste 20 Norte 0 922.4 2.9 75
2017-08-07 23:00:00 15.5 8 Norte 31 Nordeste 0 921.9 3.5 72
2017-08-07 22:00:00 16.9 13 Nordeste 39 Este 0 920.2 1.2 67
2017-08-07 21:00:00 19.3 15 Nordeste 40 Nordeste 0 919.5 0 61
2017-08-07 20:00:00 23 2 Nordeste 5 Este 0 918.4 -1 51
2017-08-07 19:00:00 23.5 0 Calma 17 Sudoeste 0 919 -0.5 46
2017-08-07 18:00:00 26 8 Sudoeste 21 Sudoeste 0 919.5 -0.2 23
2017-08-07 17:00:00 27.5 6 Sudoeste 28 Sudoeste 0 919.4 -0.9 28
2017-08-07 16:00:00 27.5 10 Sudoeste 30 Sudoeste 0 919.5 -1.5 32
2017-08-07 15:00:00 28.8 8 Sur 24 Sudoeste 0 919.7 -1.7 34
2017-08-07 14:00:00 26.5 4 Sudeste 18 Sudoeste 0 920.3 -1.2 42
2017-08-07 13:00:00 25.5 5 Sudeste 15 Sur 0 921 -0.9 43
2017-08-07 12:00:00 23.4 4 Este 16 Nordeste 0 921.4 -0.9 50
2017-08-07 11:00:00 20.6 4 Nordeste 21 Nordeste 0 921.5 -1 59
2017-08-07 10:00:00 17.6 8 Nordeste 22 Nordeste 0 921.9 -0.5 69
2017-08-07 09:00:00 14.5 9 Nordeste 21 Nordeste 0 922.3 -0.2 81
2017-08-07 08:00:00 12.1 5 Norte 17 Nordeste 0 922.5 -0.5 92
2017-08-07 07:00:00 11.7 7 Nordeste 17 Nordeste 0 922.4 -1 92
2017-08-07 06:00:00 11.7 5 Nordeste 18 Este 0 922.5 -1.5 91
2017-08-07 05:00:00 12.2 6 Nordeste 19 Nordeste 0 923 -1.7 89
2017-08-07 04:00:00 12.6 7 Nordeste 21 Nordeste 0 923.4 -1.7 85
2017-08-07 03:00:00 12.9 8 Nordeste 28 Nordeste 0 924 -1.1 84
2017-08-07 02:00:00 13.2 10 Nordeste 23 Norte 0 924.7 -0.4 81
2017-08-07 01:00:00 13.5 7 Nordeste 21 Nordeste 0 925.1 0.4 80
2017-08-07 00:00:00 14 8 Nordeste 22 Nordeste 0 925.1 1.1 77
2017-08-06 23:00:00 14.9 9 Nordeste 29 Nordeste 0 925.1 1.1 74
2017-08-06 22:00:00 16.3 10 Nordeste 33 Norte 0 924.7 0.5 67
2017-08-06 21:00:00 19.5 13 Nordeste 30 Nordeste 0 924 -0.3 55
2017-08-06 20:00:00 22.3 12 Nordeste 37 Este 0 924 -0.7 43
2017-08-06 19:00:00 24.3 12 Nordeste 36 Nordeste 0 924.2 -1.2 37
2017-08-06 18:00:00 25.2 11 Este 38 Este 0 924.3 -1.6 35
2017-08-06 17:00:00 24.4 15 Nordeste 40 Nordeste 0 924.7 -1.8 34
2017-08-06 16:00:00 23.5 17 Nordeste 46 Nordeste 0 925.4 -1.9 40
2017-08-06 15:00:00 21.7 18 Nordeste 49 Nordeste 0 925.9 -1.8 45
2017-08-06 14:00:00 20.1 17 Nordeste 48 Nordeste 0 926.5 -1.2 50
2017-08-06 13:00:00 18.5 14 Nordeste 44 Este 0 927.3 -0.4 57
2017-08-06 12:00:00 17.4 16 Este 42 Este 0 927.7 0.2 61
2017-08-06 11:00:00 15.9 14 Nordeste 42 Nordeste 0 927.7 0.6 69
2017-08-06 10:00:00 14.5 15 Nordeste 42 Nordeste 0 927.7 1.1 75
2017-08-06 09:00:00 14 12 Nordeste 44 Nordeste 0 927.5 1 78
2017-08-06 08:00:00 14.1 12 Nordeste 36 Nordeste 0 927.1 0.5 78
2017-08-06 07:00:00 14.4 14 Nordeste 42 Nordeste 0 926.6 -0.2 76
2017-08-06 06:00:00 14.4 14 Nordeste 40 Este 0 926.5 -0.4 77
2017-08-06 05:00:00 14.2 12 Nordeste 35 Este 0 926.6 -0.6 78
2017-08-06 04:00:00 13.7 12 Nordeste 38 Nordeste 0 926.8 -0.4 79
2017-08-06 03:00:00 14.1 16 Nordeste 40 Nordeste 0 926.9 -0.4 77
2017-08-06 02:00:00 14.2 15 Nordeste 39 Nordeste 0 927.2 0.1 76
2017-08-06 01:00:00 14.5 17 Nordeste 40 Nordeste 0 927.2 1.2 75
2017-08-06 00:00:00 14.6 17 Nordeste 51 Nordeste 0 927.3 2 75
2017-08-05 23:00:00 14.9 18 Nordeste 50 Nordeste 0 927.1 2.5 73
2017-08-05 22:00:00 15.6 21 Nordeste 51 Nordeste 0 926 1.6 69
2017-08-05 21:00:00 17.5 18 Nordeste 48 Nordeste 0 925.3 0.7 63
2017-08-05 20:00:00 19.5 18 Nordeste 53 Este 0 924.6 0.1 58
2017-08-05 19:00:00 22.5 18 Nordeste 45 Nordeste 0 924.4 -0.4 49
2017-08-05 18:00:00 24.1 15 Nordeste 41 Este 0 924.6 -0.7 47
2017-08-05 17:00:00 25.9 16 Este 36 Este 0 924.5 -1.1 43
2017-08-05 16:00:00 26.7 12 Nordeste 35 Nordeste 0 924.8 -0.9 42
2017-08-05 15:00:00 25.8 15 Nordeste 41 Nordeste 0 925.3 -0.4 46
2017-08-05 14:00:00 25.4 13 Este 40 Nordeste 0 925.6 -0.1 48
2017-08-05 13:00:00 25.3 14 Este 41 Sudeste 0 925.7 -0.1 50
2017-08-05 12:00:00 24.5 13 Este 32 Este 0 925.7 0.2 52
2017-08-05 11:00:00 22.9 13 Nordeste 48 Nordeste 0 925.7 0.6 59
2017-08-05 10:00:00 21.5 10 Este 29 Este 0 925.8 0.8 70
2017-08-05 09:00:00 19.9 7 Este 18 Nordeste 0 925.5 1 78
2017-08-05 08:00:00 17.3 5 Nordeste 17 Nordeste 0 925.1 0.5 92
2017-08-05 07:00:00 16.7 6 Norte 18 Nordeste 0 925 0.4 93
2017-08-05 06:00:00 16.4 4 Nordeste 11 Nordeste 0 924.5 -0.3 93
2017-08-05 05:00:00 16.6 3 Norte 15 Nordeste 0 924.6 -0.4 90
2017-08-05 04:00:00 17.7 5 Norte 15 Nordeste 0 924.6 -0.3 89
2017-08-05 03:00:00 18.3 5 Nordeste 12 Nordeste 0 924.8 -0.1 84
2017-08-05 02:00:00 19.1 4 Norte 18 Nordeste 0 925 0.2 80
2017-08-05 01:00:00 20.3 7 Nordeste 27 Nordeste 0 924.9 1.4 76
2017-08-05 00:00:00 21.3 12 Nordeste 27 Nordeste 0 924.9 2.2 72
2017-08-04 23:00:00 22.7 11 Norte 29 Nordeste 0 924.8 2.2 66
2017-08-04 22:00:00 25.4 13 Norte 28 Nordeste 0 923.5 0.5 54
2017-08-04 21:00:00 28.2 3 Sudoeste 26 Sudoeste 0 922.7 -0.9 41
2017-08-04 20:00:00 31.5 3 Sudoeste 17 Noroeste 0 922.6 -1.4 27
2017-08-04 19:00:00 33.6 4 Sudoeste 18 Sur 0 923 -1.5 25
2017-08-04 18:00:00 33.5 5 Sudoeste 35 Sudoeste 0 923.6 -1.5 25
2017-08-04 17:00:00 33.3 7 Sudoeste 25 Sudoeste 0 924 -1.5 26
2017-08-04 16:00:00 32.8 4 Oeste 26 Sudoeste 0 924.5 -1.4 31
2017-08-04 15:00:00 32 7 Sudoeste 24 Sudoeste 0 925.1 -1.3 31
2017-08-04 14:00:00 30.4 5 Oeste 21 Sudoeste 0 925.5 -1 37
2017-08-04 13:00:00 28.4 4 Oeste 25 Sur 0 925.9 -0.6 42
2017-08-04 12:00:00 27.7 6 Sudoeste 20 Sudoeste 0 926.4 0.2 45
2017-08-04 11:00:00 24.8 6 Noroeste 16 Norte 0 926.5 0.6 52
2017-08-04 10:00:00 22.1 4 Oeste 12 Sudoeste 0 926.5 0.8 61
2017-08-04 09:00:00 18.7 2 Este 6 Nordeste 0 926.2 0.7 71
2017-08-04 08:00:00 13.6 0 Calma 4 Norte 0 925.9 0.5 94
2017-08-04 07:00:00 13.3 0 Calma 4 Norte 0 925.7 0.2 93
2017-08-04 06:00:00 13.9 0 Calma 5 Norte 0 925.5 -0.2 92
2017-08-04 05:00:00 14.5 0 Calma 4 Noroeste 0 925.4 -0.2 91
2017-08-04 04:00:00 15.1 2 Noroeste 5 Noroeste 0 925.5 -0.2 88
2017-08-04 03:00:00 16 0 Calma 4 Norte 0 925.7 0.1 81
2017-08-04 02:00:00 17.7 0 Calma 9 Nordeste 0 925.6 0.8 73
2017-08-04 01:00:00 19.7 4 Nordeste 11 Norte 0 925.7 1.5 65
2017-08-04 00:00:00 20.9 5 Nordeste 13 Norte 0 925.6 1.8 62
2017-08-03 23:00:00 20.8 0 Calma 11 Norte 0 924.8 1.2 65
2017-08-03 22:00:00 23 0 Calma 5 Noroeste 0 924.2 0.3 60
2017-08-03 21:00:00 26.4 3 Oeste 14 Sur 0 923.8 -0.4 49
2017-08-03 20:00:00 30 3 Noroeste 18 Oeste 0 923.6 -0.8 31
2017-08-03 19:00:00 31.9 4 Noroeste 28 Sudoeste 0 923.9 -1 24
2017-08-03 18:00:00 32.1 6 Oeste 32 Sudoeste 0 924.2 -1.2 23
2017-08-03 17:00:00 32.1 4 Oeste 29 Sudoeste 0 924.4 -1.6 27
2017-08-03 16:00:00 31.5 10 Sudoeste 29 Sudoeste 0 924.9 -1.5 27
2017-08-03 15:00:00 30.6 7 Sudoeste 29 Sur 0 925.4 -1.4 20
2017-08-03 14:00:00 29.2 9 Sudoeste 25 Sudoeste 0 926 -0.9 23
2017-08-03 13:00:00 28 6 Sudoeste 20 Sudoeste 0 926.4 -0.7 30
2017-08-03 12:00:00 27 8 Sudoeste 19 Sudeste 0 926.8 0 32
2017-08-03 11:00:00 24.3 6 Sur 12 Sur 0 926.9 0.5 41
2017-08-03 10:00:00 20.7 3 Sudoeste 14 Este 0 927.1 1 48
2017-08-03 09:00:00 15.3 2 Norte 3 Norte 0 926.8 1.2 66
2017-08-03 08:00:00 9.6 0 Calma 5 Norte 0 926.4 0.7 80
2017-08-03 07:00:00 9.5 2 Norte 4 Oeste 0 926.1 0.7 82
2017-08-03 06:00:00 9.6 0 Calma 4 Norte 0 925.6 0.2 82
2017-08-03 05:00:00 10.4 2 Norte 4 Norte 0 925.7 0.2 78
2017-08-03 04:00:00 11.3 0 Calma 5 Noroeste 0 925.4 0 78
2017-08-03 03:00:00 11.7 0 Calma 4 Sudoeste 0 925.4 0 80
2017-08-03 02:00:00 12.8 0 Calma 3 Noroeste 0 925.5 0.4 77
2017-08-03 01:00:00 13.6 0 Calma 4 Norte 0 925.4 0.6 77
2017-08-03 00:00:00 14.9 2 Noroeste 4 Noroeste 0 925.4 1.1 70
2017-08-02 23:00:00 16.8 0 Calma 2 Norte 0 925.1 1.2 62
2017-08-02 22:00:00 19.8 0 Calma 4 Norte 0 924.8 0.8 56
2017-08-02 21:00:00 23.4 3 Norte 13 Sudoeste 0 924.3 0.3 48
2017-08-02 20:00:00 28.2 3 Noroeste 19 Sudoeste 0 923.9 -0.3 28
2017-08-02 19:00:00 30.9 8 Sudoeste 29 Sudoeste 0 924 -0.8 19
2017-08-02 18:00:00 30.8 4 Sudoeste 19 Sudoeste 0 924 -1.2 20
2017-08-02 17:00:00 30.7 3 Sudeste 18 Sudoeste 0 924.2 -1.5 18
2017-08-02 16:00:00 30.4 7 Sudoeste 23 Sudoeste 0 924.8 -1.2 20
2017-08-02 15:00:00 30.2 9 Sur 26 Sudoeste 0 925.2 -1.1 19
2017-08-02 14:00:00 29.1 5 Sur 23 Sudoeste 0 925.7 -0.6 22
2017-08-02 13:00:00 27.7 4 Sudoeste 16 Sudoeste 0 926 -0.3 25
2017-08-02 12:00:00 24.8 5 Noroeste 15 Noroeste 0 926.3 0.4 36
2017-08-02 11:00:00 22.7 3 Noroeste 10 Sudeste 0 926.3 0.3 54
2017-08-02 10:00:00 19.5 2 Norte 8 Noroeste 0 926.3 0.5 69
2017-08-02 09:00:00 15.5 3 Norte 7 Norte 0 925.9 0.3 89
2017-08-02 08:00:00 11 0 Calma 5 Norte 0 926 0.4 96
2017-08-02 07:00:00 10.9 2 Norte 4 Noroeste 0 925.8 -0.1 95
2017-08-02 06:00:00 11.2 0 Calma 4 Norte 0 925.6 -0.3 94
2017-08-02 05:00:00 12.1 3 Norte 5 Noroeste 0 925.6 -0.2 93
2017-08-02 04:00:00 13 2 Norte 4 Norte 0 925.9 0.1 92
2017-08-02 03:00:00 14.3 3 Noroeste 11 Nordeste 0 925.9 0.3 85
2017-08-02 02:00:00 15.8 4 Nordeste 13 Nordeste 0 925.8 0.9 81
2017-08-02 01:00:00 16.8 4 Nordeste 18 Nordeste 0 925.8 1.7 76
2017-08-02 00:00:00 17.8 7 Noroeste 23 Norte 0 925.6 2.7 73
2017-08-01 23:00:00 19.5 9 Nordeste 21 Norte 0 924.9 2.7 66
2017-08-01 22:00:00 21 7 Nordeste 21 Nordeste 0 924.1 2.3 59
2017-08-01 21:00:00 22.5 0 Calma 6 Oeste 0 922.9 1 51
2017-08-01 20:00:00 26.5 3 Oeste 23 Sudoeste 0 922.2 0.4 26
2017-08-01 19:00:00 28.5 6 Sur 26 Sudoeste 0 921.8 0 25
2017-08-01 18:00:00 28.7 4 Sudeste 23 Sudoeste 0 921.9 -0.1 26
2017-08-01 17:00:00 28.6 6 Sudoeste 27 Sur 0 921.8 -0.3 26
2017-08-01 16:00:00 28 5 Sudoeste 23 Sudoeste 0 921.8 -0.7 28
2017-08-01 15:00:00 27.1 6 Oeste 22 Sur 0 922 -0.5 31
2017-08-01 14:00:00 25.3 4 Nordeste 17 Sudoeste 0 922.1 -0.3 32
2017-08-01 13:00:00 24.2 4 Este 17 Nordeste 0 922.5 0.2 41
2017-08-01 12:00:00 22.5 6 Nordeste 20 Este 0 922.5 0.7 45
2017-08-01 11:00:00 20.6 7 Nordeste 19 Nordeste 0 922.4 1.2 55
2017-08-01 10:00:00 18.4 6 Nordeste 22 Norte 0 922.3 1.6 65
2017-08-01 09:00:00 16.6 8 Nordeste 21 Este 0 921.8 1.4 72
2017-08-01 08:00:00 14.1 5 Nordeste 13 Nordeste 0 921.2 0.7 83
2017-08-01 07:00:00 14.2 5 Nordeste 12 Nordeste 0 920.7 0.3 83
2017-08-01 06:00:00 14.3 4 Nordeste 11 Norte 0 920.4 -0.2 82
2017-08-01 05:00:00 14.9 5 Nordeste 24 Nordeste 0 920.5 0 80
2017-08-01 04:00:00 15 8 Nordeste 30 Nordeste 0 920.4 0 80
2017-08-01 03:00:00 15.1 4 Nordeste 11 Este 0 920.6 0.2 80
2017-08-01 02:00:00 15.4 3 Nordeste 19 Nordeste 0 920.5 0.1 77
2017-08-01 01:00:00 16.1 5 Nordeste 21 Nordeste 0 920.4 0.9 74
2017-08-01 00:00:00 17 4 Nordeste 18 Nordeste 0 920.4 1.7 70
2017-07-31 23:00:00 17.8 8 Nordeste 21 Nordeste 0 920.4 2.3 67
2017-07-31 22:00:00 18.9 8 Nordeste 22 Nordeste 0 919.5 1.3 62
2017-07-31 21:00:00 20.7 0 Calma 19 Noroeste 0 918.7 0.8 47
2017-07-31 20:00:00 22.4 5 Norte 17 Noroeste 0 918.1 0.5 37
2017-07-31 19:00:00 23.6 4 Noroeste 20 Norte 0 918.2 0.3 38
2017-07-31 18:00:00 24.6 9 Noroeste 24 Oeste 0 917.9 -0.4 38
2017-07-31 17:00:00 26.8 4 Oeste 22 Sur 0 917.6 -1.2 28
2017-07-31 16:00:00 26.9 6 Sudoeste 27 Sudoeste 0 917.9 -1.2 25
2017-07-31 15:00:00 26.5 4 Sudoeste 19 Sur 0 918.3 -0.9 29
2017-07-31 14:00:00 23.7 3 Oeste 12 Sudeste 0 918.8 -0.4 41
2017-07-31 13:00:00 23.3 5 Este 17 Nordeste 0 919.1 -0.2 44
2017-07-31 12:00:00 20.8 6 Nordeste 23 Nordeste 0 919.2 -0.3 50
2017-07-31 11:00:00 18.6 10 Norte 26 Nordeste 0 919.2 0.3 59
2017-07-31 10:00:00 17.4 11 Nordeste 27 Nordeste 0 919.3 0.5 63
2017-07-31 09:00:00 14.7 9 Nordeste 27 Nordeste 0 919.5 0.3 70
2017-07-31 08:00:00 13.1 9 Nordeste 25 Norte 0 918.9 -0.6 74
2017-07-31 07:00:00 12.3 10 Nordeste 23 Nordeste 0 918.8 -0.8 78
2017-07-31 06:00:00 12.1 8 Norte 19 Nordeste 0 919.2 -0.8 79
2017-07-31 05:00:00 12.7 7 Nordeste 19 Este 0 919.5 -1 77
2017-07-31 04:00:00 12.9 7 Nordeste 20 Nordeste 0 919.6 -1.1 79
2017-07-31 03:00:00 13.4 6 Nordeste 21 Nordeste 0 920 -0.8 80
2017-07-31 02:00:00 13.8 7 Nordeste 25 Nordeste 0 920.5 -0.3 79
2017-07-31 01:00:00 14.3 10 Nordeste 31 Nordeste 0 920.7 0.6 77
2017-07-31 00:00:00 14.9 13 Nordeste 33 Nordeste 0 920.8 1.5 76
2017-07-30 23:00:00 16.3 13 Nordeste 33 Nordeste 0 920.8 1.9 70
2017-07-30 22:00:00 20.4 9 Nordeste 24 Nordeste 0 920.1 1.1 53
2017-07-30 21:00:00 25 3 Sudoeste 22 Sudoeste 0 919.3 -0.1 23
2017-07-30 20:00:00 28 8 Sudoeste 24 Sudoeste 0 918.9 -0.8 18
2017-07-30 19:00:00 28.8 5 Sudoeste 24 Sudoeste 0 919 -1.4 19
2017-07-30 18:00:00 29.4 8 Sudoeste 31 Sudoeste 0 919.4 -1.1 16
2017-07-30 17:00:00 30.1 12 Sudoeste 35 Sudoeste 0 919.7 -1.2 15
2017-07-30 16:00:00 30.1 10 Sudoeste 36 Sur 0 920.4 -1 15
2017-07-30 15:00:00 29 13 Sudoeste 37 Sur 0 920.5 -1.5 18
2017-07-30 14:00:00 27.6 8 Sudoeste 30 Sudoeste 0 920.9 -1.2 25
2017-07-30 13:00:00 26 13 Sudoeste 28 Sudoeste 0 921.4 -1 29
2017-07-30 12:00:00 24.2 7 Sudoeste 22 Sudoeste 0 922 -0.3 39
2017-07-30 11:00:00 22.7 5 Sudoeste 22 Sudoeste 0 922.1 0 46
2017-07-30 10:00:00 21.1 5 Sudoeste 16 Sudoeste 0 922.4 0.3 49
2017-07-30 09:00:00 17.5 2 Nordeste 7 Sudeste 0 922.3 0.1 66
2017-07-30 08:00:00 13.5 0 Calma 4 Sudoeste 0 922.1 -0.1 82
2017-07-30 07:00:00 13.6 0 Calma 6 Sur 0 922.1 0.2 81
2017-07-30 06:00:00 15.1 0 Calma 7 Sudoeste 0 922.2 -0.2 76
2017-07-30 05:00:00 15.7 0 Calma 12 Sudoeste 0 922.2 -0.3 71
2017-07-30 04:00:00 15.2 4 Nordeste 10 Norte 0 921.9 -0.6 74
2017-07-30 03:00:00 16.1 0 Calma 7 Sudoeste 0 922.4 -0.2 69
2017-07-30 02:00:00 17.9 0 Calma 8 Sur 0 922.5 -0.1 59
2017-07-30 01:00:00 20 2 Este 8 Norte 0 922.5 0.6 48
2017-07-30 00:00:00 22.1 2 Este 16 Sudoeste 0 922.6 1.1 37
2017-07-29 23:00:00 25.2 6 Sudoeste 21 Sudoeste 0 922.6 1.5 25
2017-07-29 22:00:00 27.3 9 Sudoeste 30 Sudoeste 0 921.9 0.8 25
2017-07-29 21:00:00 28.9 8 Sudoeste 38 Sudoeste 0 921.5 -0.4 25
2017-07-29 20:00:00 30.6 14 Sudoeste 41 Sur 0 921.1 -1.3 21
2017-07-29 19:00:00 32.6 8 Sudoeste 35 Sudoeste 0 921.1 -1.8 18
2017-07-29 18:00:00 31.9 10 Sudoeste 29 Sudoeste 0 921.9 -1.4 21
2017-07-29 17:00:00 31.4 7 Sudoeste 38 Sudoeste 0 922.4 -1.3 22
2017-07-29 16:00:00 30.9 9 Sudoeste 27 Sur 0 922.9 -1.3 25
2017-07-29 15:00:00 29.8 5 Sudoeste 24 Sudoeste 0 923.3 -1.1 27
2017-07-29 14:00:00 28.2 10 Sudoeste 42 Sur 0 923.7 -0.8 32
2017-07-29 13:00:00 27.2 10 Sudoeste 29 Sur 0 924.2 -0.5 37
2017-07-29 12:00:00 25.7 7 Sudoeste 29 Sur 0 924.4 0.1 40
2017-07-29 11:00:00 24.4 7 Sudoeste 16 Sudoeste 0 924.5 0.7 37
2017-07-29 10:00:00 21.4 3 Oeste 9 Sudoeste 0 924.7 1 46
2017-07-29 09:00:00 17.6 0 Calma 5 Noroeste 0 924.3 0.6 66
2017-07-29 08:00:00 11.2 0 Calma 4 Norte 0 923.8 0.1 87
2017-07-29 07:00:00 11.4 2 Norte 5 Noroeste 0 923.7 0.1 82
2017-07-29 06:00:00 12.2 0 Calma 7 Noroeste 0 923.7 -0.4 76
2017-07-29 05:00:00 13.8 0 Calma 10 Este 0 923.7 -0.9 67
2017-07-29 04:00:00 15.4 4 Nordeste 11 Nordeste 0 923.6 -1 54
2017-07-29 03:00:00 16.2 4 Nordeste 12 Nordeste 0 924.1 -0.2 52
2017-07-29 02:00:00 16.5 2 Norte 10 Norte 0 924.6 0.1 57
2017-07-29 01:00:00 18.7 4 Nordeste 19 Este 0 924.6 1 44
2017-07-29 00:00:00 20.6 7 Nordeste 20 Este 0 924.3 1.1 39
2017-07-28 23:00:00 22.6 8 Nordeste 23 Este 0 924.5 1.6 34
2017-07-28 22:00:00 22.8 0 Calma 3 Noroeste 0 923.6 0.6 52
2017-07-28 21:00:00 25.8 0 Calma 8 Sudoeste 0 923.2 0 42
2017-07-28 20:00:00 29.4 3 Noroeste 16 Sudoeste 0 922.9 -0.6 23
2017-07-28 19:00:00 30.7 4 Oeste 16 Sudoeste 0 923 -0.9 20
2017-07-28 18:00:00 31.7 5 Sudoeste 16 Sudoeste 0 923.2 -1 13
2017-07-28 17:00:00 31.4 6 Sudoeste 22 Sudoeste 0 923.5 -1.2 13
2017-07-28 16:00:00 30.6 3 Oeste 15 Sudoeste 0 923.9 -1.1 15
2017-07-28 15:00:00 29.5 6 Sudoeste 22 Sudoeste 0 924.2 -1 14
2017-07-28 14:00:00 28.5 7 Sur 19 Sur 0 924.7 -0.7 24
2017-07-28 13:00:00 26.1 4 Oeste 18 Sudoeste 0 925 -0.4 31
2017-07-28 12:00:00 24.4 5 Sudoeste 14 Sudoeste 0 925.2 0 46
2017-07-28 11:00:00 22.4 3 Sudeste 12 Sudeste 0 925.4 0.5 60
2017-07-28 10:00:00 20.2 5 Nordeste 15 Este 0 925.4 0.6 69
2017-07-28 09:00:00 17.8 4 Nordeste 9 Nordeste 0 925.2 0.9 86
2017-07-28 08:00:00 12.9 3 Norte 5 Noroeste 0 924.9 0.7 96
2017-07-28 07:00:00 12.4 0 Calma 5 Norte 0 924.8 0.7 95
2017-07-28 06:00:00 12.5 0 Calma 6 Norte 0 924.3 0.2 93
2017-07-28 05:00:00 13.6 3 Norte 6 Nordeste 0 924.2 0.1 94
2017-07-28 04:00:00 14.5 2 Norte 6 Norte 0 924.1 0.2 91
2017-07-28 03:00:00 16.1 2 Nordeste 10 Norte 0 924.1 0.6 83
2017-07-28 02:00:00 17.2 5 Norte 15 Norte 0 924.1 1 82
2017-07-28 01:00:00 18.3 6 Nordeste 21 Nordeste 0 923.9 1.8 77
2017-07-28 00:00:00 20 2 Norte 15 Norte 0 923.5 2.6 69
2017-07-27 23:00:00 22.1 7 Nordeste 23 Este 0 923.1 2.5 59
2017-07-27 22:00:00 24.5 12 Nordeste 27 Nordeste 0 922.1 1.2 50
2017-07-27 21:00:00 25 0 Calma 18 Oeste 0 920.9 -0.4 47
2017-07-27 20:00:00 30.1 4 Noroeste 19 Sur 0 920.6 -1.1 25
2017-07-27 19:00:00 32.6 5 Sur 18 Oeste 0 920.9 -1.1 15
2017-07-27 18:00:00 32.5 6 Sudoeste 32 Sudoeste 0 921.3 -1 19
2017-07-27 17:00:00 32.6 6 Sudoeste 33 Sudoeste 0 921.7 -1 16
2017-07-27 16:00:00 32.1 9 Sudoeste 36 Sudoeste 0 922 -1.3 15
2017-07-27 15:00:00 31 7 Sudoeste 26 Sur 0 922.3 -1.3 19
2017-07-27 14:00:00 29.8 5 Sudoeste 19 Sudoeste 0 922.7 -0.9 19
2017-07-27 13:00:00 28.2 6 Sudoeste 18 Sudoeste 0 923.3 -0.5 26
2017-07-27 12:00:00 25.9 3 Este 10 Sudoeste 0 923.6 -0.2 34
2017-07-27 11:00:00 23.8 4 Sudoeste 12 Este 0 923.6 0.2 37
2017-07-27 10:00:00 21.4 4 Nordeste 11 Nordeste 0 923.8 0.7 43
2017-07-27 09:00:00 17.9 3 Nordeste 9 Nordeste 0 923.8 0.7 57
2017-07-27 08:00:00 11.3 0 Calma 5 Sur 0 923.4 0.5 91
2017-07-27 07:00:00 10.7 0 Calma 6 Norte 0 923.1 0.2 87
2017-07-27 06:00:00 11.9 3 Norte 7 Noroeste 0 923.1 -0.4 81
2017-07-27 05:00:00 13.8 4 Norte 10 Nordeste 0 922.9 -0.6 72
2017-07-27 04:00:00 15.3 6 Norte 12 Norte 0 922.9 -0.6 65
2017-07-27 03:00:00 16.3 3 Norte 14 Norte 0 923.5 -0.1 64
2017-07-27 02:00:00 18.4 6 Nordeste 20 Nordeste 0 923.5 0.2 49
2017-07-27 01:00:00 19.3 7 Nordeste 18 Norte 0 923.5 1.1 45
2017-07-27 00:00:00 20.7 5 Nordeste 24 Nordeste 0 923.6 1.5 46
2017-07-26 23:00:00 22.1 9 Nordeste 25 Nordeste 0 923.3 1.3 44
2017-07-26 22:00:00 21.2 0 Calma 3 Norte 0 922.4 0.1 56
2017-07-26 21:00:00 24.6 2 Nordeste 11 Sudoeste 0 922.1 -0.4 44
2017-07-26 20:00:00 27.9 3 Sur 20 Sudoeste 0 922 -1 27
2017-07-26 19:00:00 29.6 6 Sudoeste 23 Sur 0 922.3 -1.2 21
2017-07-26 18:00:00 30.4 5 Sudoeste 21 Sur 0 922.5 -1.5 21
2017-07-26 17:00:00 30.1 8 Sudoeste 24 Sudoeste 0 923 -1.3 23
2017-07-26 16:00:00 28.7 3 Noroeste 15 Sudoeste 0 923.5 -1.2 24
2017-07-26 15:00:00 27.6 4 Sudoeste 20 Sur 0 924 -1 28
2017-07-26 14:00:00 26.3 8 Sudoeste 23 Sur 0 924.3 -1 32
2017-07-26 13:00:00 24.6 6 Sudoeste 22 Sudoeste 0 924.7 -0.9 39
2017-07-26 12:00:00 22.5 5 Sudoeste 17 Sur 0 925 -0.5 42
2017-07-26 11:00:00 20.2 3 Oeste 14 Sudoeste 0 925.3 -0.1 49
2017-07-26 10:00:00 17.9 3 Este 7 Sudeste 0 925.6 0.8 57
2017-07-26 09:00:00 14.2 2 Nordeste 8 Noroeste 0 925.5 0.6 73
2017-07-26 08:00:00 10.1 2 Oeste 8 Noroeste 0 925.4 0.3 91
2017-07-26 07:00:00 9.5 2 Noroeste 14 Este 0 924.8 -0.5 91
2017-07-26 06:00:00 10.1 0 Calma 10 Nordeste 0 924.9 -0.6 83
2017-07-26 05:00:00 11.2 4 Norte 10 Nordeste 0 925.1 -0.6 81
2017-07-26 04:00:00 11.1 5 Norte 10 Norte 0 925.3 -0.6 81
2017-07-26 03:00:00 11.7 3 Nordeste 8 Norte 0 925.5 -0.5 77
2017-07-26 02:00:00 12.3 2 Nordeste 12 Nordeste 0 925.7 -0.3 74
2017-07-26 01:00:00 13.1 2 Nordeste 10 Norte 0 925.9 0.4 70
2017-07-26 00:00:00 14.4 4 Nordeste 17 Nordeste 0 926 1 64
2017-07-25 23:00:00 15.8 5 Nordeste 24 Nordeste 0 926 1.1 58
2017-07-25 22:00:00 17.5 7 Nordeste 27 Este 0 925.5 0.8 51
2017-07-25 21:00:00 19.3 9 Este 26 Nordeste 0 925 0.1 46
2017-07-25 20:00:00 21.2 7 Este 28 Este 0 924.9 -0.3 42
2017-07-25 19:00:00 22.9 8 Este 26 Norte 0 924.7 -0.8 37
2017-07-25 18:00:00 23.7 8 Este 27 Nordeste 0 924.9 -1.2 36
2017-07-25 17:00:00 24.4 8 Este 25 Nordeste 0 925.2 -1.5 37
2017-07-25 16:00:00 23.3 10 Este 31 Nordeste 0 925.5 -1.4 39
2017-07-25 15:00:00 22.3 10 Este 32 Nordeste 0 926.1 -1 42
2017-07-25 14:00:00 21.1 8 Nordeste 32 Sudeste 0 926.7 -0.8 43
2017-07-25 13:00:00 20.5 9 Este 30 Nordeste 0 926.9 -0.9 48
2017-07-25 12:00:00 19.5 11 Nordeste 29 Nordeste 0 927.1 -0.6 49
2017-07-25 11:00:00 18.3 8 Este 21 Norte 0 927.5 -0.5 51
2017-07-25 10:00:00 16.2 9 Este 21 Nordeste 0 927.8 0.2 59
2017-07-25 09:00:00 14 6 Este 17 Nordeste 0 927.7 0.3 69
2017-07-25 08:00:00 9 0 Calma 5 Noroeste 0 928 0.4 94
2017-07-25 07:00:00 8.7 2 Oeste 11 Nordeste 0 927.6 -0.4 92
2017-07-25 06:00:00 9.6 5 Nordeste 11 Nordeste 0 927.4 -1 89
2017-07-25 05:00:00 10.5 2 Este 9 Nordeste 0 927.6 -0.9 87
2017-07-25 04:00:00 10.6 0 Calma 10 Este 0 928 -0.9 83
2017-07-25 03:00:00 11.7 0 Calma 12 Este 0 928.4 -0.5 80
2017-07-25 02:00:00 12.7 3 Este 10 Nordeste 0 928.5 -0.1 77
2017-07-25 01:00:00 13.4 3 Nordeste 14 Este 0 928.9 0.8 75
2017-07-25 00:00:00 14.4 4 Este 18 Este 0 928.9 1.2 73
2017-07-24 23:00:00 15.7 9 Nordeste 28 Este 0 928.6 1.4 67
2017-07-24 22:00:00 17.7 9 Este 30 Este 0 928.1 1.2 60
2017-07-24 21:00:00 20.2 9 Este 29 Nordeste 0 927.7 1.2 53
2017-07-24 20:00:00 22.7 9 Este 28 Sudeste 0 927.2 0.8 46
2017-07-24 19:00:00 23.1 9 Nordeste 35 Este 0 926.9 0.1 45
2017-07-24 18:00:00 27.5 9 Norte 24 Norte 0 926.5 -0.8 29
2017-07-24 17:00:00 27.2 10 Noroeste 27 Noroeste 0 926.4 -0.9 27
2017-07-24 16:00:00 27 10 Noroeste 21 Norte 0 926.8 -1 27
2017-07-24 15:00:00 25.8 8 Norte 25 Norte 0 927.3 -0.8 26
2017-07-24 14:00:00 -- -- -- -- -- -- -- -- --
2017-07-24 13:00:00 -- -- -- -- -- -- -- -- --
2017-07-24 12:00:00 -- -- -- -- -- -- -- -- --
2017-07-24 11:00:00 -- -- -- -- -- -- -- -- --
2017-07-24 10:00:00 18.9 4 Sur 12 Sudoeste 0 928.5 0.6 67
2017-07-24 09:00:00 16.1 2 Sur 6 Sur 0 928.3 0.6 82
2017-07-24 08:00:00 10.8 0 Calma 3 Oeste 0 928 0.4 96
2017-07-24 07:00:00 10.2 0 Calma 4 Oeste 0 927.9 0.5 95
2017-07-24 06:00:00 10.6 0 Calma 4 Norte 0 927.7 0 94
2017-07-24 05:00:00 11.4 2 Noroeste 4 Noroeste 0 927.6 -0.3 94
2017-07-24 04:00:00 12.1 3 Noroeste 6 Noroeste 0 927.4 -0.3 92
2017-07-24 03:00:00 13.1 2 Noroeste 5 Noroeste 0 927.7 0.3 87
2017-07-24 02:00:00 14.6 2 Norte 6 Sudeste 0 927.9 1 81
2017-07-24 01:00:00 16.6 3 Este 10 Norte 0 927.7 1.7 73
2017-07-24 00:00:00 17.5 6 Norte 17 Nordeste 0 927.4 2.4 70
2017-07-23 23:00:00 19 8 Nordeste 33 Nordeste 0 926.9 2.2 64
2017-07-23 22:00:00 21.9 11 Norte 27 Nordeste 0 926 1.2 49
2017-07-23 21:00:00 24.7 8 Nordeste 23 Nordeste 0 925 -0.3 36
2017-07-23 20:00:00 27.2 9 Norte 20 Norte 0 924.7 -0.9 31
2017-07-23 19:00:00 28.2 5 Noroeste 19 Noroeste 0 924.8 -1.3 27
2017-07-23 18:00:00 27.9 8 Norte 20 Norte 0 925.3 -1.4 22
2017-07-23 17:00:00 27.3 4 Nordeste 10 Sudeste 0 925.6 -1.6 26
2017-07-23 16:00:00 26.9 3 Oeste 12 Oeste 0 926.1 -1.3 27
2017-07-23 15:00:00 26.2 5 Sudoeste 13 Noroeste 0 926.7 -0.7 29
2017-07-23 14:00:00 24.8 5 Sudoeste 14 Nordeste 0 927.2 -0.2 32
2017-07-23 13:00:00 23.6 3 Este 14 Nordeste 0 927.4 -0.2 38
2017-07-23 12:00:00 20.6 5 Norte 16 Nordeste 0 927.4 -0.2 48
2017-07-23 11:00:00 18.9 5 Nordeste 17 Nordeste 0 927.4 0.4 57
2017-07-23 10:00:00 16.6 8 Nordeste 22 Nordeste 0 927.6 0.8 65
2017-07-23 09:00:00 14.4 8 Nordeste 23 Nordeste 0 927.6 1.1 75
2017-07-23 08:00:00 12 7 Norte 17 Nordeste 0 927 0.7 85
2017-07-23 07:00:00 11.4 6 Norte 14 Nordeste 0 926.8 0.4 89
2017-07-23 06:00:00 11.8 6 Norte 19 Nordeste 0 926.5 0.1 90
2017-07-23 05:00:00 12.1 7 Nordeste 18 Norte 0 926.3 -0.1 85
2017-07-23 04:00:00 12.3 6 Norte 14 Nordeste 0 926.4 0.1 83
2017-07-23 03:00:00 12.7 5 Nordeste 17 Nordeste 0 926.4 0.6 82
2017-07-23 02:00:00 13.1 7 Norte 17 Norte 0 926.4 1.3 81
2017-07-23 01:00:00 13.7 6 Nordeste 22 Nordeste 0 926.3 2.6 78
2017-07-23 00:00:00 14.7 6 Nordeste 21 Nordeste 0 925.8 3.5 74
2017-07-22 23:00:00 16.1 11 Nordeste 31 Nordeste 0 925.1 3.1 69
2017-07-22 22:00:00 19.2 11 Nordeste 28 Nordeste 0 923.7 1.8 57
2017-07-22 21:00:00 22.6 0 Calma 7 Nordeste 0 922.3 0.3 55
2017-07-22 20:00:00 26.3 0 Calma 14 Sur 0 922 -0.1 31
2017-07-22 19:00:00 27.6 6 Sudoeste 32 Sudoeste 0 921.9 -0.1 26
2017-07-22 18:00:00 27.5 6 Sudoeste 24 Sudoeste 0 922 -0.1 26
2017-07-22 17:00:00 27.4 8 Sudoeste 29 Sur 0 922.1 -0.3 28
2017-07-22 16:00:00 26.9 9 Sudoeste 32 Sur 0 922 -0.5 27
2017-07-22 15:00:00 25.8 9 Sudoeste 27 Sudoeste 0 922.1 -0.5 31
2017-07-22 14:00:00 24.8 10 Sudoeste 29 Sur 0 922.4 -0.2 35
2017-07-22 13:00:00 23.9 12 Sudoeste 28 Sudoeste 0 922.5 -0.2 34
2017-07-22 12:00:00 22.8 4 Sudoeste 18 Sudoeste 0 922.6 0.3 37
2017-07-22 11:00:00 19.1 5 Sudoeste 14 Sudoeste 0 922.6 0.9 50
2017-07-22 10:00:00 16.1 2 Sudoeste 10 Sudoeste 0 922.7 1.4 63
2017-07-22 09:00:00 12.7 0 Calma 3 Oeste 0 922.3 1.1 86
2017-07-22 08:00:00 10.5 0 Calma 4 Sur 0 921.7 0.5 93
2017-07-22 07:00:00 10.2 0 Calma 6 Norte 0 921.3 0.1 92
2017-07-22 06:00:00 10.2 3 Norte 6 Este 0 921.2 0 92
2017-07-22 05:00:00 9.7 0 Calma 3 Norte 0 921.2 0.1 92
2017-07-22 04:00:00 9.9 0 Calma 4 Noroeste 0 921.2 0.1 91
2017-07-22 03:00:00 10.7 0 Calma 5 Noroeste 0 921.2 0.4 84
2017-07-22 02:00:00 12.2 0 Calma 5 Norte 0 921.1 0.7 80
2017-07-22 01:00:00 14.6 3 Norte 13 Nordeste 0 921.1 1.6 71
2017-07-22 00:00:00 16.7 5 Nordeste 24 Nordeste 0 920.8 2.3 57